sensor_id;sensor_type;location;lat;lon;timestamp;P1;durP1;ratioP1;P2;durP2;ratioP2
21444;SDS011;10883;51.946;20.140;2023-04-09T00:02:17;22.45;;;13.10;;
21444;SDS011;10883;51.946;20.140;2023-04-09T00:04:43;25.77;;;13.13;;
21444;SDS011;10883;51.946;20.140;2023-04-09T00:07:09;23.00;;;12.75;;
21444;SDS011;10883;51.946;20.140;2023-04-09T00:09:35;21.48;;;11.73;;
21444;SDS011;10883;51.946;20.140;2023-04-09T00:12:01;23.63;;;13.20;;
21444;SDS011;10883;51.946;20.140;2023-04-09T00:14:27;22.42;;;12.30;;
21444;SDS011;10883;51.946;20.140;2023-04-09T00:16:53;23.88;;;13.18;;
21444;SDS011;10883;51.946;20.140;2023-04-09T00:19:19;23.17;;;13.40;;
21444;SDS011;10883;51.946;20.140;2023-04-09T00:21:45;25.85;;;15.07;;
21444;SDS011;10883;51.946;20.140;2023-04-09T00:24:11;27.58;;;14.13;;
21444;SDS011;10883;51.946;20.140;2023-04-09T00:26:37;22.83;;;14.02;;
21444;SDS011;10883;51.946;20.140;2023-04-09T00:29:02;25.00;;;14.20;;
21444;SDS011;10883;51.946;20.140;2023-04-09T00:31:28;38.67;;;18.45;;
21444;SDS011;10883;51.946;20.140;2023-04-09T00:33:54;52.75;;;21.20;;
21444;SDS011;10883;51.946;20.140;2023-04-09T00:36:20;46.72;;;19.15;;
21444;SDS011;10883;51.946;20.140;2023-04-09T00:38:46;40.85;;;18.73;;
21444;SDS011;10883;51.946;20.140;2023-04-09T00:41:12;36.28;;;16.90;;
21444;SDS011;10883;51.946;20.140;2023-04-09T00:43:38;38.35;;;16.83;;
21444;SDS011;10883;51.946;20.140;2023-04-09T00:46:04;31.65;;;15.45;;
21444;SDS011;10883;51.946;20.140;2023-04-09T00:48:30;36.17;;;15.88;;
21444;SDS011;10883;51.946;20.140;2023-04-09T00:50:56;28.75;;;15.60;;
21444;SDS011;10883;51.946;20.140;2023-04-09T00:53:22;27.27;;;14.38;;
21444;SDS011;10883;51.946;20.140;2023-04-09T00:55:48;34.65;;;16.88;;
21444;SDS011;10883;51.946;20.140;2023-04-09T00:58:13;26.15;;;13.82;;
21444;SDS011;10883;51.946;20.140;2023-04-09T01:00:40;76.20;;;29.80;;
21444;SDS011;10883;51.946;20.140;2023-04-09T01:03:05;38.00;;;16.15;;
21444;SDS011;10883;51.946;20.140;2023-04-09T01:08:13;23.27;;;13.35;;
21444;SDS011;10883;51.946;20.140;2023-04-09T01:13:18;31.40;;;15.00;;
21444;SDS011;10883;51.946;20.140;2023-04-09T01:15:51;24.08;;;13.40;;
21444;SDS011;10883;51.946;20.140;2023-04-09T01:21:05;21.88;;;13.05;;
21444;SDS011;10883;51.946;20.140;2023-04-09T01:26:51;24.55;;;13.10;;
21444;SDS011;10883;51.946;20.140;2023-04-09T01:29:32;19.98;;;12.07;;
21444;SDS011;10883;51.946;20.140;2023-04-09T01:32:02;21.20;;;12.25;;
21444;SDS011;10883;51.946;20.140;2023-04-09T01:34:31;19.70;;;12.68;;
21444;SDS011;10883;51.946;20.140;2023-04-09T01:36:58;22.55;;;13.02;;
21444;SDS011;10883;51.946;20.140;2023-04-09T01:39:26;20.83;;;11.45;;
21444;SDS011;10883;51.946;20.140;2023-04-09T01:41:53;22.15;;;12.02;;
21444;SDS011;10883;51.946;20.140;2023-04-09T01:44:20;21.63;;;12.75;;
21444;SDS011;10883;51.946;20.140;2023-04-09T01:46:47;21.27;;;13.10;;
21444;SDS011;10883;51.946;20.140;2023-04-09T01:49:14;21.63;;;13.00;;
21444;SDS011;10883;51.946;20.140;2023-04-09T01:51:41;24.52;;;13.25;;
21444;SDS011;10883;51.946;20.140;2023-04-09T01:54:07;19.85;;;12.48;;
21444;SDS011;10883;51.946;20.140;2023-04-09T01:56:43;21.50;;;12.77;;
21444;SDS011;10883;51.946;20.140;2023-04-09T01:59:10;19.80;;;12.88;;
21444;SDS011;10883;51.946;20.140;2023-04-09T02:10:02;22.05;;;13.32;;
21444;SDS011;10883;51.946;20.140;2023-04-09T02:12:31;19.50;;;12.48;;
21444;SDS011;10883;51.946;20.140;2023-04-09T02:15:00;21.45;;;12.50;;
21444;SDS011;10883;51.946;20.140;2023-04-09T02:17:27;20.77;;;12.63;;
21444;SDS011;10883;51.946;20.140;2023-04-09T02:19:53;24.85;;;14.38;;
21444;SDS011;10883;51.946;20.140;2023-04-09T02:22:18;27.65;;;14.85;;
21444;SDS011;10883;51.946;20.140;2023-04-09T02:24:44;23.95;;;13.77;;
21444;SDS011;10883;51.946;20.140;2023-04-09T02:27:10;22.67;;;13.98;;
21444;SDS011;10883;51.946;20.140;2023-04-09T02:29:37;21.75;;;13.38;;
21444;SDS011;10883;51.946;20.140;2023-04-09T02:32:04;20.45;;;13.05;;
21444;SDS011;10883;51.946;20.140;2023-04-09T02:34:30;22.92;;;14.55;;
21444;SDS011;10883;51.946;20.140;2023-04-09T02:36:56;22.33;;;13.93;;
21444;SDS011;10883;51.946;20.140;2023-04-09T02:39:22;21.50;;;13.38;;
21444;SDS011;10883;51.946;20.140;2023-04-09T02:41:48;23.10;;;14.35;;
21444;SDS011;10883;51.946;20.140;2023-04-09T02:44:14;24.85;;;13.63;;
21444;SDS011;10883;51.946;20.140;2023-04-09T02:46:40;21.45;;;13.60;;
21444;SDS011;10883;51.946;20.140;2023-04-09T02:49:06;21.55;;;12.73;;
21444;SDS011;10883;51.946;20.140;2023-04-09T02:51:35;22.27;;;13.38;;
21444;SDS011;10883;51.946;20.140;2023-04-09T02:54:01;23.23;;;12.45;;
21444;SDS011;10883;51.946;20.140;2023-04-09T02:56:27;18.83;;;12.85;;
21444;SDS011;10883;51.946;20.140;2023-04-09T02:58:53;21.88;;;12.32;;
21444;SDS011;10883;51.946;20.140;2023-04-09T03:01:19;19.63;;;12.23;;
21444;SDS011;10883;51.946;20.140;2023-04-09T03:03:45;19.42;;;12.75;;
21444;SDS011;10883;51.946;20.140;2023-04-09T03:06:11;24.33;;;12.43;;
21444;SDS011;10883;51.946;20.140;2023-04-09T03:08:37;23.05;;;13.27;;
21444;SDS011;10883;51.946;20.140;2023-04-09T03:11:03;18.45;;;11.95;;
21444;SDS011;10883;51.946;20.140;2023-04-09T03:13:28;20.55;;;12.73;;
21444;SDS011;10883;51.946;20.140;2023-04-09T03:15:54;20.80;;;12.98;;
21444;SDS011;10883;51.946;20.140;2023-04-09T03:18:20;21.90;;;13.55;;
21444;SDS011;10883;51.946;20.140;2023-04-09T03:20:46;19.77;;;12.70;;
21444;SDS011;10883;51.946;20.140;2023-04-09T03:23:11;18.25;;;11.88;;
21444;SDS011;10883;51.946;20.140;2023-04-09T03:25:37;20.67;;;13.25;;
21444;SDS011;10883;51.946;20.140;2023-04-09T03:28:03;21.52;;;13.38;;
21444;SDS011;10883;51.946;20.140;2023-04-09T03:30:29;21.45;;;12.95;;
21444;SDS011;10883;51.946;20.140;2023-04-09T03:32:55;21.42;;;13.00;;
21444;SDS011;10883;51.946;20.140;2023-04-09T03:35:22;22.23;;;12.43;;
21444;SDS011;10883;51.946;20.140;2023-04-09T03:37:47;18.80;;;12.10;;
21444;SDS011;10883;51.946;20.140;2023-04-09T03:40:13;19.20;;;12.35;;
21444;SDS011;10883;51.946;20.140;2023-04-09T03:42:41;23.25;;;13.27;;
21444;SDS011;10883;51.946;20.140;2023-04-09T03:45:07;19.25;;;11.98;;
21444;SDS011;10883;51.946;20.140;2023-04-09T03:47:33;18.73;;;13.30;;
21444;SDS011;10883;51.946;20.140;2023-04-09T03:49:59;20.80;;;13.70;;
21444;SDS011;10883;51.946;20.140;2023-04-09T03:52:25;21.02;;;12.55;;
21444;SDS011;10883;51.946;20.140;2023-04-09T03:54:50;21.95;;;12.98;;
21444;SDS011;10883;51.946;20.140;2023-04-09T03:57:16;22.42;;;13.77;;
21444;SDS011;10883;51.946;20.140;2023-04-09T03:59:42;21.60;;;13.13;;
21444;SDS011;10883;51.946;20.140;2023-04-09T04:02:08;24.75;;;14.48;;
21444;SDS011;10883;51.946;20.140;2023-04-09T04:04:35;25.75;;;14.73;;
21444;SDS011;10883;51.946;20.140;2023-04-09T04:07:02;23.73;;;14.27;;
21444;SDS011;10883;51.946;20.140;2023-04-09T04:09:28;24.80;;;14.50;;
21444;SDS011;10883;51.946;20.140;2023-04-09T04:11:54;24.92;;;15.10;;
21444;SDS011;10883;51.946;20.140;2023-04-09T04:14:21;28.13;;;14.98;;
21444;SDS011;10883;51.946;20.140;2023-04-09T04:16:46;27.52;;;15.10;;
21444;SDS011;10883;51.946;20.140;2023-04-09T04:19:12;24.48;;;14.90;;
21444;SDS011;10883;51.946;20.140;2023-04-09T04:21:38;25.98;;;14.60;;
21444;SDS011;10883;51.946;20.140;2023-04-09T04:24:03;25.27;;;15.30;;
21444;SDS011;10883;51.946;20.140;2023-04-09T04:26:30;25.88;;;15.65;;
21444;SDS011;10883;51.946;20.140;2023-04-09T04:28:55;27.38;;;16.15;;
21444;SDS011;10883;51.946;20.140;2023-04-09T04:31:21;26.00;;;15.60;;
21444;SDS011;10883;51.946;20.140;2023-04-09T04:33:47;27.08;;;15.95;;
21444;SDS011;10883;51.946;20.140;2023-04-09T04:36:13;30.40;;;16.83;;
21444;SDS011;10883;51.946;20.140;2023-04-09T04:38:39;26.23;;;15.48;;
21444;SDS011;10883;51.946;20.140;2023-04-09T04:41:05;28.77;;;16.00;;
21444;SDS011;10883;51.946;20.140;2023-04-09T04:43:32;26.35;;;15.40;;
21444;SDS011;10883;51.946;20.140;2023-04-09T04:45:58;29.77;;;16.55;;
21444;SDS011;10883;51.946;20.140;2023-04-09T04:48:24;29.80;;;16.67;;
21444;SDS011;10883;51.946;20.140;2023-04-09T04:50:54;28.15;;;16.05;;
21444;SDS011;10883;51.946;20.140;2023-04-09T04:53:21;29.15;;;16.65;;
21444;SDS011;10883;51.946;20.140;2023-04-09T04:55:46;26.38;;;16.20;;
21444;SDS011;10883;51.946;20.140;2023-04-09T04:58:12;30.48;;;16.38;;
21444;SDS011;10883;51.946;20.140;2023-04-09T05:00:38;29.48;;;16.67;;
21444;SDS011;10883;51.946;20.140;2023-04-09T05:03:04;32.95;;;19.38;;
21444;SDS011;10883;51.946;20.140;2023-04-09T05:05:30;37.05;;;20.92;;
21444;SDS011;10883;51.946;20.140;2023-04-09T05:07:55;34.90;;;21.52;;
21444;SDS011;10883;51.946;20.140;2023-04-09T05:10:21;28.27;;;18.00;;
21444;SDS011;10883;51.946;20.140;2023-04-09T05:12:47;33.42;;;19.90;;
21444;SDS011;10883;51.946;20.140;2023-04-09T05:15:13;29.27;;;17.48;;
21444;SDS011;10883;51.946;20.140;2023-04-09T05:17:41;34.92;;;19.38;;
21444;SDS011;10883;51.946;20.140;2023-04-09T05:20:08;32.92;;;17.67;;
21444;SDS011;10883;51.946;20.140;2023-04-09T05:22:34;25.08;;;16.00;;
21444;SDS011;10883;51.946;20.140;2023-04-09T05:25:00;29.27;;;18.23;;
21444;SDS011;10883;51.946;20.140;2023-04-09T05:27:26;27.13;;;17.00;;
21444;SDS011;10883;51.946;20.140;2023-04-09T05:29:52;30.83;;;18.67;;
21444;SDS011;10883;51.946;20.140;2023-04-09T05:32:18;37.08;;;18.92;;
21444;SDS011;10883;51.946;20.140;2023-04-09T05:34:44;31.77;;;17.42;;
21444;SDS011;10883;51.946;20.140;2023-04-09T05:37:10;31.10;;;21.17;;
21444;SDS011;10883;51.946;20.140;2023-04-09T05:39:36;35.05;;;20.08;;
21444;SDS011;10883;51.946;20.140;2023-04-09T05:42:02;33.42;;;18.95;;
21444;SDS011;10883;51.946;20.140;2023-04-09T05:44:28;35.40;;;20.95;;
21444;SDS011;10883;51.946;20.140;2023-04-09T05:46:54;30.90;;;18.77;;
21444;SDS011;10883;51.946;20.140;2023-04-09T05:49:20;31.83;;;18.88;;
21444;SDS011;10883;51.946;20.140;2023-04-09T05:51:46;33.92;;;19.80;;
21444;SDS011;10883;51.946;20.140;2023-04-09T05:54:13;33.78;;;19.77;;
21444;SDS011;10883;51.946;20.140;2023-04-09T05:56:41;33.60;;;20.60;;
21444;SDS011;10883;51.946;20.140;2023-04-09T05:59:07;30.85;;;19.17;;
21444;SDS011;10883;51.946;20.140;2023-04-09T06:01:33;32.70;;;20.27;;
21444;SDS011;10883;51.946;20.140;2023-04-09T06:03:59;33.35;;;21.05;;
21444;SDS011;10883;51.946;20.140;2023-04-09T06:06:25;34.47;;;20.38;;
21444;SDS011;10883;51.946;20.140;2023-04-09T06:08:51;37.58;;;21.48;;
21444;SDS011;10883;51.946;20.140;2023-04-09T06:11:17;38.78;;;22.50;;
21444;SDS011;10883;51.946;20.140;2023-04-09T06:13:43;34.08;;;20.42;;
21444;SDS011;10883;51.946;20.140;2023-04-09T06:16:09;36.70;;;23.05;;
21444;SDS011;10883;51.946;20.140;2023-04-09T06:18:35;36.28;;;22.42;;
21444;SDS011;10883;51.946;20.140;2023-04-09T06:21:02;42.47;;;22.80;;
21444;SDS011;10883;51.946;20.140;2023-04-09T06:23:28;56.55;;;26.85;;
21444;SDS011;10883;51.946;20.140;2023-04-09T06:25:54;29.00;;;17.88;;
21444;SDS011;10883;51.946;20.140;2023-04-09T06:28:20;49.55;;;30.00;;
21444;SDS011;10883;51.946;20.140;2023-04-09T06:30:46;34.85;;;21.23;;
21444;SDS011;10883;51.946;20.140;2023-04-09T06:33:13;81.07;;;32.47;;
21444;SDS011;10883;51.946;20.140;2023-04-09T06:35:38;59.70;;;26.58;;
21444;SDS011;10883;51.946;20.140;2023-04-09T06:38:04;58.97;;;26.77;;
21444;SDS011;10883;51.946;20.140;2023-04-09T06:40:30;121.00;;;41.55;;
21444;SDS011;10883;51.946;20.140;2023-04-09T06:42:56;38.13;;;21.77;;
21444;SDS011;10883;51.946;20.140;2023-04-09T06:45:22;32.95;;;19.67;;
21444;SDS011;10883;51.946;20.140;2023-04-09T06:47:48;33.25;;;21.08;;
21444;SDS011;10883;51.946;20.140;2023-04-09T06:50:14;31.67;;;19.98;;
21444;SDS011;10883;51.946;20.140;2023-04-09T06:52:40;31.88;;;19.35;;
21444;SDS011;10883;51.946;20.140;2023-04-09T06:55:06;34.25;;;20.23;;
21444;SDS011;10883;51.946;20.140;2023-04-09T06:57:32;33.00;;;19.48;;
21444;SDS011;10883;51.946;20.140;2023-04-09T06:59:58;28.60;;;18.40;;
21444;SDS011;10883;51.946;20.140;2023-04-09T07:02:23;33.35;;;20.00;;
21444;SDS011;10883;51.946;20.140;2023-04-09T07:04:50;33.70;;;19.70;;
21444;SDS011;10883;51.946;20.140;2023-04-09T07:07:16;38.38;;;21.00;;
21444;SDS011;10883;51.946;20.140;2023-04-09T07:09:41;31.40;;;19.30;;
21444;SDS011;10883;51.946;20.140;2023-04-09T07:12:09;28.65;;;17.92;;
21444;SDS011;10883;51.946;20.140;2023-04-09T07:14:35;33.47;;;19.60;;
21444;SDS011;10883;51.946;20.140;2023-04-09T07:17:02;27.77;;;17.50;;
21444;SDS011;10883;51.946;20.140;2023-04-09T07:19:29;30.90;;;19.05;;
21444;SDS011;10883;51.946;20.140;2023-04-09T07:21:55;29.05;;;17.42;;
21444;SDS011;10883;51.946;20.140;2023-04-09T07:24:21;41.08;;;21.55;;
21444;SDS011;10883;51.946;20.140;2023-04-09T07:26:47;87.93;;;34.05;;
21444;SDS011;10883;51.946;20.140;2023-04-09T07:29:14;36.67;;;20.10;;
21444;SDS011;10883;51.946;20.140;2023-04-09T07:31:40;42.92;;;25.15;;
21444;SDS011;10883;51.946;20.140;2023-04-09T07:34:05;23.83;;;16.77;;
21444;SDS011;10883;51.946;20.140;2023-04-09T07:36:31;27.13;;;16.85;;
21444;SDS011;10883;51.946;20.140;2023-04-09T07:38:57;22.85;;;14.70;;
21444;SDS011;10883;51.946;20.140;2023-04-09T07:41:23;145.85;;;48.15;;
21444;SDS011;10883;51.946;20.140;2023-04-09T07:43:49;32.17;;;18.77;;
21444;SDS011;10883;51.946;20.140;2023-04-09T07:46:19;27.02;;;16.85;;
21444;SDS011;10883;51.946;20.140;2023-04-09T07:48:46;24.60;;;15.82;;
21444;SDS011;10883;51.946;20.140;2023-04-09T07:51:14;23.40;;;15.30;;
21444;SDS011;10883;51.946;20.140;2023-04-09T07:53:40;23.65;;;15.25;;
21444;SDS011;10883;51.946;20.140;2023-04-09T07:56:08;21.17;;;14.43;;
21444;SDS011;10883;51.946;20.140;2023-04-09T07:58:36;21.20;;;14.00;;
21444;SDS011;10883;51.946;20.140;2023-04-09T08:01:04;22.70;;;16.38;;
21444;SDS011;10883;51.946;20.140;2023-04-09T08:03:30;86.15;;;34.13;;
21444;SDS011;10883;51.946;20.140;2023-04-09T08:05:56;26.13;;;16.42;;
21444;SDS011;10883;51.946;20.140;2023-04-09T08:08:22;48.00;;;20.85;;
21444;SDS011;10883;51.946;20.140;2023-04-09T08:10:48;28.55;;;16.77;;
21444;SDS011;10883;51.946;20.140;2023-04-09T08:13:13;24.45;;;15.70;;
21444;SDS011;10883;51.946;20.140;2023-04-09T08:15:39;27.52;;;17.38;;
21444;SDS011;10883;51.946;20.140;2023-04-09T08:18:05;26.77;;;16.38;;
21444;SDS011;10883;51.946;20.140;2023-04-09T08:20:31;29.77;;;17.38;;
21444;SDS011;10883;51.946;20.140;2023-04-09T08:22:57;28.30;;;16.17;;
21444;SDS011;10883;51.946;20.140;2023-04-09T08:25:23;30.33;;;17.52;;
21444;SDS011;10883;51.946;20.140;2023-04-09T08:27:50;23.75;;;13.80;;
21444;SDS011;10883;51.946;20.140;2023-04-09T08:30:15;20.88;;;13.35;;
21444;SDS011;10883;51.946;20.140;2023-04-09T08:32:41;23.05;;;13.52;;
21444;SDS011;10883;51.946;20.140;2023-04-09T08:35:08;24.73;;;15.27;;
21444;SDS011;10883;51.946;20.140;2023-04-09T08:37:34;25.88;;;15.55;;
21444;SDS011;10883;51.946;20.140;2023-04-09T08:40:00;21.23;;;13.93;;
21444;SDS011;10883;51.946;20.140;2023-04-09T08:42:25;19.88;;;13.18;;
21444;SDS011;10883;51.946;20.140;2023-04-09T08:44:53;19.65;;;14.25;;
21444;SDS011;10883;51.946;20.140;2023-04-09T08:47:19;19.40;;;13.30;;
21444;SDS011;10883;51.946;20.140;2023-04-09T08:49:45;28.98;;;15.48;;
21444;SDS011;10883;51.946;20.140;2023-04-09T08:52:13;18.98;;;13.30;;
21444;SDS011;10883;51.946;20.140;2023-04-09T08:54:40;19.17;;;13.48;;
21444;SDS011;10883;51.946;20.140;2023-04-09T08:57:06;20.60;;;13.82;;
21444;SDS011;10883;51.946;20.140;2023-04-09T08:59:32;23.33;;;15.00;;
21444;SDS011;10883;51.946;20.140;2023-04-09T09:02:08;19.88;;;14.30;;
21444;SDS011;10883;51.946;20.140;2023-04-09T09:04:47;21.23;;;14.18;;
21444;SDS011;10883;51.946;20.140;2023-04-09T09:07:14;20.25;;;13.57;;
21444;SDS011;10883;51.946;20.140;2023-04-09T09:09:50;20.02;;;13.60;;
21444;SDS011;10883;51.946;20.140;2023-04-09T09:12:39;34.85;;;18.15;;
21444;SDS011;10883;51.946;20.140;2023-04-09T09:15:27;77.18;;;32.97;;
21444;SDS011;10883;51.946;20.140;2023-04-09T09:17:53;44.67;;;20.92;;
21444;SDS011;10883;51.946;20.140;2023-04-09T09:20:21;43.85;;;19.67;;
21444;SDS011;10883;51.946;20.140;2023-04-09T09:22:48;21.65;;;12.63;;
21444;SDS011;10883;51.946;20.140;2023-04-09T09:25:15;14.35;;;9.55;;
21444;SDS011;10883;51.946;20.140;2023-04-09T09:27:41;11.98;;;8.93;;
21444;SDS011;10883;51.946;20.140;2023-04-09T09:30:08;14.90;;;9.90;;
21444;SDS011;10883;51.946;20.140;2023-04-09T09:32:45;14.43;;;9.85;;
21444;SDS011;10883;51.946;20.140;2023-04-09T09:35:11;15.57;;;10.43;;
21444;SDS011;10883;51.946;20.140;2023-04-09T09:37:38;16.05;;;10.77;;
21444;SDS011;10883;51.946;20.140;2023-04-09T09:40:04;19.20;;;12.15;;
21444;SDS011;10883;51.946;20.140;2023-04-09T09:42:31;23.15;;;15.98;;
21444;SDS011;10883;51.946;20.140;2023-04-09T09:44:57;22.05;;;14.63;;
21444;SDS011;10883;51.946;20.140;2023-04-09T09:47:23;22.90;;;15.48;;
21444;SDS011;10883;51.946;20.140;2023-04-09T09:49:51;19.27;;;13.52;;
21444;SDS011;10883;51.946;20.140;2023-04-09T09:52:20;20.20;;;14.18;;
21444;SDS011;10883;51.946;20.140;2023-04-09T09:54:54;18.58;;;12.35;;
21444;SDS011;10883;51.946;20.140;2023-04-09T09:57:23;17.00;;;11.02;;
21444;SDS011;10883;51.946;20.140;2023-04-09T09:59:53;13.68;;;10.23;;
21444;SDS011;10883;51.946;20.140;2023-04-09T10:02:23;17.40;;;10.98;;
21444;SDS011;10883;51.946;20.140;2023-04-09T10:04:54;16.17;;;10.77;;
21444;SDS011;10883;51.946;20.140;2023-04-09T10:07:24;14.90;;;10.65;;
21444;SDS011;10883;51.946;20.140;2023-04-09T10:09:50;14.35;;;9.85;;
21444;SDS011;10883;51.946;20.140;2023-04-09T10:12:20;13.02;;;9.43;;
21444;SDS011;10883;51.946;20.140;2023-04-09T10:14:47;14.90;;;9.95;;
21444;SDS011;10883;51.946;20.140;2023-04-09T10:17:15;13.20;;;9.45;;
21444;SDS011;10883;51.946;20.140;2023-04-09T10:19:43;17.50;;;11.90;;
21444;SDS011;10883;51.946;20.140;2023-04-09T10:22:19;15.55;;;10.48;;
21444;SDS011;10883;51.946;20.140;2023-04-09T10:24:47;16.27;;;11.00;;
21444;SDS011;10883;51.946;20.140;2023-04-09T10:27:15;14.73;;;10.32;;
21444;SDS011;10883;51.946;20.140;2023-04-09T10:29:44;15.88;;;11.38;;
21444;SDS011;10883;51.946;20.140;2023-04-09T10:32:19;17.88;;;11.32;;
21444;SDS011;10883;51.946;20.140;2023-04-09T10:34:47;12.75;;;9.35;;
21444;SDS011;10883;51.946;20.140;2023-04-09T10:37:21;12.73;;;9.00;;
21444;SDS011;10883;51.946;20.140;2023-04-09T10:39:48;13.55;;;9.38;;
21444;SDS011;10883;51.946;20.140;2023-04-09T10:42:19;13.00;;;9.68;;
21444;SDS011;10883;51.946;20.140;2023-04-09T10:47:30;16.13;;;10.90;;
21444;SDS011;10883;51.946;20.140;2023-04-09T10:50:19;13.48;;;9.85;;
21444;SDS011;10883;51.946;20.140;2023-04-09T10:52:51;14.55;;;10.63;;
21444;SDS011;10883;51.946;20.140;2023-04-09T10:55:37;14.85;;;10.13;;
21444;SDS011;10883;51.946;20.140;2023-04-09T10:58:10;13.07;;;9.35;;
21444;SDS011;10883;51.946;20.140;2023-04-09T11:00:37;14.85;;;9.38;;
21444;SDS011;10883;51.946;20.140;2023-04-09T11:05:56;14.23;;;9.15;;
21444;SDS011;10883;51.946;20.140;2023-04-09T11:08:30;13.70;;;8.05;;
21444;SDS011;10883;51.946;20.140;2023-04-09T11:10:57;13.27;;;9.25;;
21444;SDS011;10883;51.946;20.140;2023-04-09T11:13:25;17.73;;;9.35;;
21444;SDS011;10883;51.946;20.140;2023-04-09T11:15:52;12.40;;;8.20;;
21444;SDS011;10883;51.946;20.140;2023-04-09T11:18:19;13.07;;;8.38;;
21444;SDS011;10883;51.946;20.140;2023-04-09T11:20:56;14.65;;;9.10;;
21444;SDS011;10883;51.946;20.140;2023-04-09T11:23:24;12.30;;;8.63;;
21444;SDS011;10883;51.946;20.140;2023-04-09T11:25:50;11.00;;;7.50;;
21444;SDS011;10883;51.946;20.140;2023-04-09T11:28:17;11.27;;;7.88;;
21444;SDS011;10883;51.946;20.140;2023-04-09T11:30:43;9.57;;;7.32;;
21444;SDS011;10883;51.946;20.140;2023-04-09T11:33:11;13.07;;;8.63;;
21444;SDS011;10883;51.946;20.140;2023-04-09T11:35:37;11.48;;;7.88;;
21444;SDS011;10883;51.946;20.140;2023-04-09T11:38:07;10.52;;;8.38;;
21444;SDS011;10883;51.946;20.140;2023-04-09T11:40:34;9.55;;;7.03;;
21444;SDS011;10883;51.946;20.140;2023-04-09T11:43:00;12.00;;;8.27;;
21444;SDS011;10883;51.946;20.140;2023-04-09T11:45:28;9.98;;;7.57;;
21444;SDS011;10883;51.946;20.140;2023-04-09T11:47:55;10.18;;;7.45;;
21444;SDS011;10883;51.946;20.140;2023-04-09T11:50:21;9.20;;;7.10;;
21444;SDS011;10883;51.946;20.140;2023-04-09T11:52:48;10.32;;;7.63;;
21444;SDS011;10883;51.946;20.140;2023-04-09T11:55:24;11.75;;;8.23;;
21444;SDS011;10883;51.946;20.140;2023-04-09T11:57:52;10.73;;;7.85;;
21444;SDS011;10883;51.946;20.140;2023-04-09T12:00:22;11.52;;;8.65;;
21444;SDS011;10883;51.946;20.140;2023-04-09T12:02:49;11.00;;;8.60;;
21444;SDS011;10883;51.946;20.140;2023-04-09T12:05:23;10.48;;;7.88;;
21444;SDS011;10883;51.946;20.140;2023-04-09T12:07:55;9.38;;;7.43;;
21444;SDS011;10883;51.946;20.140;2023-04-09T12:10:29;8.43;;;6.68;;
21444;SDS011;10883;51.946;20.140;2023-04-09T12:13:03;9.07;;;7.45;;
21444;SDS011;10883;51.946;20.140;2023-04-09T12:15:31;8.65;;;6.63;;
21444;SDS011;10883;51.946;20.140;2023-04-09T12:17:58;11.35;;;8.45;;
21444;SDS011;10883;51.946;20.140;2023-04-09T12:20:46;12.30;;;8.82;;
21444;SDS011;10883;51.946;20.140;2023-04-09T12:23:11;12.57;;;9.63;;
21444;SDS011;10883;51.946;20.140;2023-04-09T12:25:41;13.07;;;8.60;;
21444;SDS011;10883;51.946;20.140;2023-04-09T12:28:09;14.98;;;9.75;;
21444;SDS011;10883;51.946;20.140;2023-04-09T12:30:36;13.20;;;8.82;;
21444;SDS011;10883;51.946;20.140;2023-04-09T12:33:02;15.32;;;10.80;;
21444;SDS011;10883;51.946;20.140;2023-04-09T12:35:29;15.07;;;9.73;;
21444;SDS011;10883;51.946;20.140;2023-04-09T12:37:55;13.35;;;9.60;;
21444;SDS011;10883;51.946;20.140;2023-04-09T12:40:21;13.05;;;8.85;;
21444;SDS011;10883;51.946;20.140;2023-04-09T12:42:47;12.25;;;9.38;;
21444;SDS011;10883;51.946;20.140;2023-04-09T12:45:13;13.15;;;9.38;;
21444;SDS011;10883;51.946;20.140;2023-04-09T12:47:41;12.95;;;8.70;;
21444;SDS011;10883;51.946;20.140;2023-04-09T12:50:07;15.32;;;10.05;;
21444;SDS011;10883;51.946;20.140;2023-04-09T12:52:34;14.70;;;9.23;;
21444;SDS011;10883;51.946;20.140;2023-04-09T12:55:01;11.55;;;8.98;;
21444;SDS011;10883;51.946;20.140;2023-04-09T12:57:27;14.23;;;9.30;;
21444;SDS011;10883;51.946;20.140;2023-04-09T12:59:53;12.77;;;9.70;;
21444;SDS011;10883;51.946;20.140;2023-04-09T13:02:19;12.68;;;9.40;;
21444;SDS011;10883;51.946;20.140;2023-04-09T13:04:46;15.10;;;9.82;;
21444;SDS011;10883;51.946;20.140;2023-04-09T13:07:12;12.63;;;9.00;;
21444;SDS011;10883;51.946;20.140;2023-04-09T13:09:46;12.15;;;9.02;;
21444;SDS011;10883;51.946;20.140;2023-04-09T13:12:14;11.60;;;8.55;;
21444;SDS011;10883;51.946;20.140;2023-04-09T13:14:41;12.25;;;8.80;;
21444;SDS011;10883;51.946;20.140;2023-04-09T13:17:08;11.95;;;8.15;;
21444;SDS011;10883;51.946;20.140;2023-04-09T13:19:34;12.00;;;8.05;;
21444;SDS011;10883;51.946;20.140;2023-04-09T13:22:00;10.77;;;8.25;;
21444;SDS011;10883;51.946;20.140;2023-04-09T13:24:26;10.75;;;7.97;;
21444;SDS011;10883;51.946;20.140;2023-04-09T13:26:51;13.13;;;8.45;;
21444;SDS011;10883;51.946;20.140;2023-04-09T13:29:18;12.00;;;8.63;;
21444;SDS011;10883;51.946;20.140;2023-04-09T13:31:44;12.77;;;8.88;;
21444;SDS011;10883;51.946;20.140;2023-04-09T13:34:09;15.45;;;9.07;;
21444;SDS011;10883;51.946;20.140;2023-04-09T13:36:35;11.13;;;8.50;;
21444;SDS011;10883;51.946;20.140;2023-04-09T13:39:01;12.27;;;8.63;;
21444;SDS011;10883;51.946;20.140;2023-04-09T13:41:31;11.98;;;8.65;;
21444;SDS011;10883;51.946;20.140;2023-04-09T13:44:00;11.77;;;8.65;;
21444;SDS011;10883;51.946;20.140;2023-04-09T13:46:26;11.70;;;8.82;;
21444;SDS011;10883;51.946;20.140;2023-04-09T13:48:52;11.20;;;7.80;;
21444;SDS011;10883;51.946;20.140;2023-04-09T13:51:19;15.02;;;9.27;;
21444;SDS011;10883;51.946;20.140;2023-04-09T13:53:46;10.50;;;7.65;;
21444;SDS011;10883;51.946;20.140;2023-04-09T13:56:13;13.23;;;9.40;;
21444;SDS011;10883;51.946;20.140;2023-04-09T13:58:39;10.27;;;8.10;;
21444;SDS011;10883;51.946;20.140;2023-04-09T14:01:05;14.80;;;9.02;;
21444;SDS011;10883;51.946;20.140;2023-04-09T14:03:31;12.73;;;8.07;;
21444;SDS011;10883;51.946;20.140;2023-04-09T14:05:57;11.48;;;7.53;;
21444;SDS011;10883;51.946;20.140;2023-04-09T14:08:23;10.10;;;7.38;;
21444;SDS011;10883;51.946;20.140;2023-04-09T14:10:49;10.15;;;7.30;;
21444;SDS011;10883;51.946;20.140;2023-04-09T14:13:15;9.35;;;7.38;;
21444;SDS011;10883;51.946;20.140;2023-04-09T14:15:41;8.57;;;5.97;;
21444;SDS011;10883;51.946;20.140;2023-04-09T14:18:09;8.75;;;6.53;;
21444;SDS011;10883;51.946;20.140;2023-04-09T14:20:35;9.30;;;7.50;;
21444;SDS011;10883;51.946;20.140;2023-04-09T14:23:02;8.25;;;6.88;;
21444;SDS011;10883;51.946;20.140;2023-04-09T14:25:28;8.27;;;6.47;;
21444;SDS011;10883;51.946;20.140;2023-04-09T14:27:54;7.75;;;6.93;;
21444;SDS011;10883;51.946;20.140;2023-04-09T14:30:21;8.63;;;7.18;;
21444;SDS011;10883;51.946;20.140;2023-04-09T14:32:47;8.02;;;6.80;;
21444;SDS011;10883;51.946;20.140;2023-04-09T14:35:12;7.60;;;6.35;;
21444;SDS011;10883;51.946;20.140;2023-04-09T14:37:38;7.68;;;6.28;;
21444;SDS011;10883;51.946;20.140;2023-04-09T14:40:05;8.68;;;6.60;;